Time;durP1;ratioP1;P1;durP2;ratioP2;P2;SDS_P1;SDS_P2;PMS_P1;PMS_P2;Temp;Humidity;BMP_temperature;BMP_pressure;BME280_temperature;BME280_humidity;BME280_pressure;Samples;Min_cycle;Max_cycle;Signal;HPM_P1;HPM_P2
2023/05/13 00:01:04;;;;;;;5.55;3.90;;;13.70;81.70;;;;;;5033208;28;20033;-62
2023/05/13 00:03:30;;;;;;;4.45;4.05;;;13.70;81.80;;;;;;5032911;28;20037;-63
2023/05/13 00:05:56;;;;;;;4.13;3.72;;;13.60;81.70;;;;;;5030270;28;20033;-63
2023/05/13 00:08:22;;;;;;;4.70;4.20;;;13.60;81.70;;;;;;5030980;28;20045;-63
2023/05/13 00:10:48;;;;;;;5.50;4.07;;;13.60;81.90;;;;;;5033577;28;20114;-63
2023/05/13 00:13:13;;;;;;;4.20;3.80;;;13.60;81.90;;;;;;5033985;28;20462;-63
2023/05/13 00:15:39;;;;;;;4.20;3.90;;;13.60;81.90;;;;;;5030325;28;20041;-63
2023/05/13 00:18:05;;;;;;;5.28;4.05;;;13.60;81.90;;;;;;5030968;28;20040;-63
2023/05/13 00:20:31;;;;;;;4.43;4.03;;;13.60;81.80;;;;;;5032886;28;20558;-62
2023/05/13 00:22:56;;;;;;;5.40;4.38;;;13.60;81.90;;;;;;5031244;28;20154;-63
2023/05/13 00:25:22;;;;;;;4.35;4.05;;;13.60;81.90;;;;;;5035691;28;20040;-63
2023/05/13 00:27:47;;;;;;;4.72;4.32;;;13.60;81.90;;;;;;5036412;28;20424;-63
2023/05/13 00:30:13;;;;;;;4.97;4.57;;;13.60;81.90;;;;;;5035915;28;20123;-63
2023/05/13 00:32:39;;;;;;;4.63;4.32;;;13.60;81.90;;;;;;5036319;28;20156;-63
2023/05/13 00:35:05;;;;;;;5.38;4.88;;;13.60;81.80;;;;;;5030719;28;20048;-63
2023/05/13 00:37:30;;;;;;;4.72;4.22;;;13.60;81.90;;;;;;5030829;28;20051;-63
2023/05/13 00:39:56;;;;;;;4.50;4.10;;;13.60;81.90;;;;;;5030585;28;20138;-63
2023/05/13 00:42:21;;;;;;;4.53;4.18;;;13.60;81.70;;;;;;5032043;28;20040;-63
2023/05/13 00:44:47;;;;;;;7.40;4.28;;;13.60;81.70;;;;;;5032997;28;20049;-62
2023/05/13 00:47:13;;;;;;;4.05;3.72;;;13.60;81.70;;;;;;5032459;28;20033;-62
2023/05/13 00:49:38;;;;;;;4.10;3.80;;;13.60;81.70;;;;;;5036295;28;20041;-63
2023/05/13 00:52:04;;;;;;;5.82;4.50;;;13.60;81.80;;;;;;5031995;28;20037;-63
2023/05/13 00:54:30;;;;;;;4.20;3.90;;;13.60;81.80;;;;;;5035886;28;20029;-63
2023/05/13 00:56:57;;;;;;;4.43;4.13;;;13.60;81.80;;;;;;5035823;28;20584;-63
2023/05/13 00:59:24;;;;;;;4.30;4.00;;;13.60;82.00;;;;;;5037710;28;20454;-62
2023/05/13 01:02:08;;;;;;;4.10;3.80;;;13.60;82.00;;;;;;5036230;28;20033;-62
2023/05/13 01:05:05;;;;;;;4.28;3.97;;;13.60;82.00;;;;;;5034490;28;20053;-62
2023/05/13 01:07:57;;;;;;;4.13;3.70;;;13.60;81.90;;;;;;5032472;28;20057;-63
2023/05/13 01:10:26;;;;;;;4.22;3.78;;;13.60;81.90;;;;;;5035026;28;20578;-63
2023/05/13 01:13:00;;;;;;;4.38;3.83;;;13.60;81.50;;;;;;5032960;28;20034;-62
2023/05/13 01:15:28;;;;;;;4.13;3.70;;;13.50;81.60;;;;;;5035582;28;20033;-63
2023/05/13 01:18:05;;;;;;;4.85;4.07;;;13.50;81.60;;;;;;5031776;28;20207;-63
2023/05/13 01:20:32;;;;;;;4.28;3.92;;;13.50;81.90;;;;;;5038354;28;20045;-63
2023/05/13 01:22:57;;;;;;;5.07;4.07;;;13.50;81.70;;;;;;5032427;28;20428;-63
2023/05/13 01:25:24;;;;;;;4.80;3.95;;;13.50;81.80;;;;;;5035555;28;20520;-64
2023/05/13 01:27:50;;;;;;;5.03;4.13;;;13.40;81.70;;;;;;5038438;28;20433;-62
2023/05/13 01:30:16;;;;;;;5.03;4.50;;;13.40;81.80;;;;;;5038530;28;20034;-63
2023/05/13 01:32:43;;;;;;;4.40;4.00;;;13.40;81.90;;;;;;5036647;28;20436;-62
2023/05/13 01:35:10;;;;;;;4.50;4.10;;;13.40;81.90;;;;;;5034952;28;20056;-63
2023/05/13 01:37:36;;;;;;;4.95;4.28;;;13.40;81.90;;;;;;5035847;28;20033;-62
2023/05/13 01:40:06;;;;;;;6.40;4.53;;;13.40;82.00;;;;;;5033406;28;20045;-62
2023/05/13 01:42:33;;;;;;;5.03;4.60;;;13.30;82.00;;;;;;5034445;28;20131;-63
2023/05/13 01:44:59;;;;;;;5.10;4.70;;;13.30;82.00;;;;;;5034900;28;20068;-62
2023/05/13 01:47:25;;;;;;;4.20;3.90;;;13.30;82.10;;;;;;5030475;28;20135;-63
2023/05/13 01:49:50;;;;;;;4.88;4.38;;;13.30;82.00;;;;;;5033207;28;20074;-63
2023/05/13 01:52:16;;;;;;;4.70;4.30;;;13.40;82.20;;;;;;5031143;28;20067;-63
2023/05/13 01:54:41;;;;;;;4.55;4.15;;;13.40;82.10;;;;;;5033259;28;20037;-62
2023/05/13 01:57:07;;;;;;;4.47;4.18;;;13.40;82.10;;;;;;5034268;28;20469;-63
2023/05/13 01:59:32;;;;;;;5.13;4.63;;;13.40;82.20;;;;;;5035595;28;20141;-62
2023/05/13 02:01:58;;;;;;;5.18;4.78;;;13.40;82.10;;;;;;5032652;28;20344;-62
2023/05/13 02:04:24;;;;;;;4.85;4.45;;;13.40;82.20;;;;;;5034305;28;20037;-62
2023/05/13 02:06:50;;;;;;;4.40;4.00;;;13.40;82.20;;;;;;5035186;28;20029;-63
2023/05/13 02:09:15;;;;;;;4.55;4.15;;;13.40;82.20;;;;;;5032338;28;20064;-63
2023/05/13 02:11:41;;;;;;;4.82;4.32;;;13.40;82.20;;;;;;5034265;28;20107;-63
2023/05/13 02:14:06;;;;;;;4.65;4.25;;;13.40;82.40;;;;;;5035717;28;20033;-63
2023/05/13 02:16:32;;;;;;;4.57;4.18;;;13.40;82.40;;;;;;5033990;28;20033;-63
2023/05/13 02:18:58;;;;;;;4.60;4.07;;;13.40;82.40;;;;;;5034317;28;20118;-63
2023/05/13 02:21:23;;;;;;;4.15;3.85;;;13.50;82.40;;;;;;5035144;28;20033;-62
2023/05/13 02:23:49;;;;;;;4.60;3.50;;;13.30;82.20;;;;;;5032648;28;20033;-62
2023/05/13 02:26:14;;;;;;;3.67;3.38;;;13.30;82.30;;;;;;5035914;28;20057;-62
2023/05/13 02:28:40;;;;;;;3.60;3.30;;;13.30;82.30;;;;;;5036924;28;20033;-62
2023/05/13 02:31:06;;;;;;;3.25;2.95;;;13.30;82.20;;;;;;5035417;28;20556;-63
2023/05/13 02:33:32;;;;;;;3.28;3.00;;;13.30;82.20;;;;;;5034467;28;20041;-62
2023/05/13 02:35:57;;;;;;;3.10;2.80;;;13.30;82.20;;;;;;5032078;28;20041;-63
2023/05/13 02:38:23;;;;;;;3.42;3.13;;;13.30;82.20;;;;;;5033715;28;20136;-62
2023/05/13 02:40:48;;;;;;;3.00;2.80;;;13.30;82.10;;;;;;5034205;28;20032;-62
2023/05/13 02:43:14;;;;;;;2.70;2.50;;;13.20;82.00;;;;;;5032057;28;20033;-62
2023/05/13 02:45:40;;;;;;;6.75;2.70;;;13.20;82.00;;;;;;5032530;28;20044;-63
2023/05/13 02:48:06;;;;;;;2.72;2.53;;;13.20;82.00;;;;;;5032946;28;20439;-63
2023/05/13 02:50:31;;;;;;;2.90;2.60;;;13.10;82.00;;;;;;5030091;28;20049;-62
2023/05/13 02:52:57;;;;;;;2.70;2.50;;;13.10;81.90;;;;;;5031906;28;20025;-62
2023/05/13 02:55:23;;;;;;;2.70;2.50;;;13.10;82.00;;;;;;5032062;28;20045;-63
2023/05/13 02:57:48;;;;;;;3.78;2.55;;;13.10;81.90;;;;;;5033159;28;20033;-62
2023/05/13 03:00:14;;;;;;;2.80;2.60;;;13.10;81.90;;;;;;5032733;28;20048;-63
2023/05/13 03:02:40;;;;;;;2.70;2.50;;;13.10;82.00;;;;;;5034146;28;20055;-63
2023/05/13 03:05:07;;;;;;;2.72;2.53;;;13.10;82.00;;;;;;5034453;28;20040;-63
2023/05/13 03:07:32;;;;;;;2.40;2.30;;;13.10;82.00;;;;;;5035449;28;20041;-62
2023/05/13 03:09:58;;;;;;;2.50;2.30;;;13.10;82.20;;;;;;5035016;28;20037;-62
2023/05/13 03:12:24;;;;;;;2.40;2.30;;;13.00;82.20;;;;;;5033641;28;20179;-62
2023/05/13 03:14:49;;;;;;;2.97;2.70;;;13.00;82.30;;;;;;5033469;28;20036;-63
2023/05/13 03:17:15;;;;;;;3.00;2.70;;;13.00;82.30;;;;;;5030135;28;20068;-63
2023/05/13 03:19:41;;;;;;;3.08;2.70;;;13.00;82.40;;;;;;5033064;28;20041;-63
2023/05/13 03:22:06;;;;;;;3.17;2.97;;;13.00;82.40;;;;;;5036600;28;20037;-63
2023/05/13 03:24:32;;;;;;;3.10;2.85;;;13.10;82.50;;;;;;5035023;28;20336;-63
2023/05/13 03:26:57;;;;;;;3.50;3.10;;;13.00;82.50;;;;;;5032665;28;20051;-62
2023/05/13 03:29:23;;;;;;;2.95;2.75;;;13.00;82.40;;;;;;5030998;28;20095;-62
2023/05/13 03:31:49;;;;;;;3.40;2.85;;;13.00;82.50;;;;;;5032075;28;20505;-63
2023/05/13 03:34:15;;;;;;;5.18;3.30;;;13.00;82.60;;;;;;5034337;28;20040;-63
2023/05/13 03:36:41;;;;;;;3.97;3.10;;;13.00;82.60;;;;;;5035648;28;20159;-63
2023/05/13 03:39:07;;;;;;;2.97;2.78;;;13.00;82.60;;;;;;5036183;28;20489;-62
2023/05/13 03:41:33;;;;;;;3.17;2.90;;;13.00;82.60;;;;;;5034076;28;20038;-63
2023/05/13 03:43:58;;;;;;;3.20;3.00;;;12.90;82.70;;;;;;5036953;28;20079;-63
2023/05/13 03:46:26;;;;;;;3.17;2.88;;;13.00;82.70;;;;;;5037133;28;20025;-63
2023/05/13 03:48:52;;;;;;;3.60;3.30;;;12.90;82.70;;;;;;5035707;28;20106;-63
2023/05/13 03:51:18;;;;;;;5.15;2.90;;;13.00;83.60;;;;;;5030408;28;20041;-63
2023/05/13 03:53:43;;;;;;;3.47;2.85;;;12.90;82.70;;;;;;5030967;28;20044;-63
2023/05/13 03:56:09;;;;;;;3.50;3.20;;;12.90;82.70;;;;;;5035132;28;20166;-63
2023/05/13 03:58:35;;;;;;;4.15;2.97;;;12.90;82.80;;;;;;5033012;28;20382;-63
2023/05/13 04:01:01;;;;;;;3.45;2.90;;;12.90;82.70;;;;;;5033217;28;20037;-62
2023/05/13 04:03:27;;;;;;;3.33;3.03;;;12.90;82.80;;;;;;5031518;28;20044;-62
2023/05/13 04:05:52;;;;;;;3.75;3.30;;;12.90;82.90;;;;;;5033795;28;20113;-63
2023/05/13 04:08:18;;;;;;;4.30;3.50;;;12.90;82.80;;;;;;5030500;28;20037;-63
2023/05/13 04:10:43;;;;;;;3.13;2.92;;;12.80;82.80;;;;;;5033621;28;20488;-63
2023/05/13 04:13:09;;;;;;;3.63;3.22;;;12.90;82.90;;;;;;5034288;28;20033;-63
2023/05/13 04:15:35;;;;;;;2.90;2.70;;;12.80;82.90;;;;;;5032327;28;20037;-63
2023/05/13 04:18:01;;;;;;;3.47;3.20;;;12.80;82.90;;;;;;5031949;28;20171;-63
2023/05/13 04:20:27;;;;;;;3.55;3.13;;;12.80;82.90;;;;;;5034516;28;20033;-62
2023/05/13 04:22:53;;;;;;;3.75;3.45;;;12.80;82.90;;;;;;5036648;28;20513;-63
2023/05/13 04:25:19;;;;;;;3.17;2.95;;;12.80;82.90;;;;;;5035333;28;20052;-62
2023/05/13 04:27:46;;;;;;;3.10;2.85;;;12.80;82.90;;;;;;5038509;28;20066;-63
2023/05/13 04:30:12;;;;;;;4.70;2.92;;;12.80;82.90;;;;;;5033463;28;20692;-62
2023/05/13 04:32:38;;;;;;;3.47;3.17;;;12.80;82.90;;;;;;5035827;28;20037;-63
2023/05/13 04:35:05;;;;;;;6.13;3.20;;;12.80;82.90;;;;;;5035438;28;20036;-63
2023/05/13 04:37:31;;;;;;;3.30;3.00;;;12.80;82.90;;;;;;5036285;28;20044;-63
2023/05/13 04:39:57;;;;;;;3.42;3.10;;;12.80;82.90;;;;;;5036945;28;20440;-63
2023/05/13 04:42:23;;;;;;;3.42;3.13;;;12.80;82.90;;;;;;5035580;28;20075;-63
2023/05/13 04:44:48;;;;;;;3.80;2.88;;;12.70;82.90;;;;;;5036024;28;20029;-62
2023/05/13 04:47:14;;;;;;;3.10;2.70;;;12.70;82.90;;;;;;5038411;28;20036;-63
2023/05/13 04:49:40;;;;;;;3.45;3.15;;;12.70;83.00;;;;;;5035348;28;20045;-63
2023/05/13 04:52:06;;;;;;;3.63;3.35;;;12.70;82.90;;;;;;5034791;28;20025;-63
2023/05/13 04:54:34;;;;;;;4.18;3.63;;;12.70;82.90;;;;;;5033475;28;20090;-63
2023/05/13 04:57:00;;;;;;;4.57;3.60;;;12.70;82.90;;;;;;5034084;28;20118;-62
2023/05/13 04:59:26;;;;;;;4.82;3.70;;;12.70;82.90;;;;;;5032246;28;20656;-63
2023/05/13 05:01:51;;;;;;;4.18;3.53;;;12.70;83.10;;;;;;5035512;28;20128;-62
2023/05/13 05:04:17;;;;;;;3.70;3.30;;;12.70;82.90;;;;;;5035682;28;20497;-62
2023/05/13 05:06:42;;;;;;;3.78;3.47;;;12.70;83.10;;;;;;5036303;28;20061;-62
2023/05/13 05:09:08;;;;;;;3.78;3.47;;;12.70;83.00;;;;;;5035342;28;20064;-62
2023/05/13 05:11:34;;;;;;;3.83;3.17;;;12.70;83.00;;;;;;5038316;28;20055;-63
2023/05/13 05:14:00;;;;;;;3.97;3.45;;;12.70;83.10;;;;;;5036393;28;20049;-63
2023/05/13 05:16:25;;;;;;;14.40;12.80;;;12.70;83.10;;;;;;5033646;28;20041;-63
2023/05/13 05:18:51;;;;;;;5.40;4.90;;;12.70;83.20;;;;;;5034466;28;20132;-63
2023/05/13 05:21:20;;;;;;;5.68;4.32;;;12.70;83.20;;;;;;5033948;28;20111;-63
2023/05/13 05:23:46;;;;;;;5.50;4.10;;;12.70;83.30;;;;;;5036031;28;20095;-63
2023/05/13 05:26:11;;;;;;;4.50;3.95;;;12.70;83.30;;;;;;5035245;28;20044;-63
2023/05/13 05:28:38;;;;;;;4.50;4.10;;;12.70;83.20;;;;;;5034238;28;20044;-62
2023/05/13 05:31:05;;;;;;;3.78;3.47;;;12.70;83.20;;;;;;5033361;28;20046;-62
2023/05/13 05:33:31;;;;;;;4.00;3.65;;;12.70;83.10;;;;;;5032744;28;20033;-62
2023/05/13 05:35:56;;;;;;;5.30;4.13;;;12.80;83.10;;;;;;5039919;28;20029;-62
2023/05/13 05:38:24;;;;;;;4.72;4.30;;;12.80;83.00;;;;;;5039251;28;20424;-63
2023/05/13 05:40:50;;;;;;;3.85;3.45;;;12.80;83.00;;;;;;5038556;28;20041;-63
2023/05/13 05:43:16;;;;;;;3.90;3.53;;;12.80;82.90;;;;;;5039098;28;20100;-62
2023/05/13 05:45:43;;;;;;;4.70;4.15;;;12.80;83.00;;;;;;5036626;28;20045;-61
2023/05/13 05:48:08;;;;;;;4.85;3.88;;;12.80;83.00;;;;;;5036579;28;20120;-62
2023/05/13 05:50:35;;;;;;;5.15;4.00;;;12.80;82.90;;;;;;5030547;28;20435;-62
2023/05/13 05:53:01;;;;;;;5.68;4.43;;;12.80;82.90;;;;;;5033362;28;20043;-63
2023/05/13 05:55:27;;;;;;;5.93;4.40;;;12.80;83.00;;;;;;5033868;28;20146;-62
2023/05/13 05:57:53;;;;;;;4.35;3.95;;;12.80;82.90;;;;;;5034048;28;20036;-63
2023/05/13 06:00:19;;;;;;;4.20;3.80;;;12.80;83.00;;;;;;5031643;28;20044;-62
2023/05/13 06:02:45;;;;;;;5.03;4.32;;;12.90;83.10;;;;;;5031545;28;20038;-63
2023/05/13 06:05:11;;;;;;;5.72;4.32;;;12.90;83.00;;;;;;5032531;28;20454;-63
2023/05/13 06:07:36;;;;;;;4.90;4.40;;;12.90;83.90;;;;;;5033932;28;20041;-63
2023/05/13 06:10:02;;;;;;;6.45;4.43;;;12.90;83.00;;;;;;5037304;28;20033;-63
2023/05/13 06:12:28;;;;;;;5.43;4.50;;;12.90;82.90;;;;;;5037238;28;20040;-63
2023/05/13 06:14:54;;;;;;;5.38;4.57;;;12.90;82.90;;;;;;5032283;28;20029;-63
2023/05/13 06:17:20;;;;;;;5.05;4.55;;;13.00;83.00;;;;;;5036234;28;20168;-62
2023/05/13 06:19:45;;;;;;;4.68;4.28;;;13.00;82.90;;;;;;5036892;28;20698;-63
2023/05/13 06:22:11;;;;;;;6.00;4.40;;;13.00;83.10;;;;;;5030371;28;20123;-63
2023/05/13 06:24:37;;;;;;;6.63;4.45;;;13.00;83.00;;;;;;5033489;28;20025;-63
2023/05/13 06:27:03;;;;;;;5.05;4.28;;;13.00;82.90;;;;;;5033059;28;20401;-63
2023/05/13 06:29:29;;;;;;;4.82;4.32;;;13.00;82.90;;;;;;5031397;28;20056;-62
2023/05/13 06:31:55;;;;;;;5.70;4.75;;;13.10;82.90;;;;;;5035526;28;20505;-63
2023/05/13 06:34:21;;;;;;;5.82;5.18;;;13.10;83.00;;;;;;5033432;28;21144;-63
2023/05/13 06:36:46;;;;;;;7.78;4.63;;;13.10;82.90;;;;;;5034596;28;20048;-62
2023/05/13 06:39:12;;;;;;;6.50;4.78;;;13.10;82.90;;;;;;5035579;28;20033;-63
2023/05/13 06:41:39;;;;;;;5.93;4.90;;;13.10;82.90;;;;;;5033653;28;20472;-62
2023/05/13 06:44:05;;;;;;;7.28;4.97;;;13.10;82.70;;;;;;5033970;28;20179;-63
2023/05/13 06:46:31;;;;;;;5.88;4.60;;;13.10;82.70;;;;;;5033005;28;20061;-63
2023/05/13 06:48:57;;;;;;;6.50;5.00;;;13.10;82.70;;;;;;5033275;28;20056;-63
2023/05/13 06:51:26;;;;;;;5.95;5.13;;;13.20;82.70;;;;;;5033341;28;20355;-63
2023/05/13 06:53:52;;;;;;;7.05;5.20;;;13.10;82.70;;;;;;5035158;28;20509;-63
2023/05/13 06:56:18;;;;;;;5.68;5.05;;;13.10;82.60;;;;;;5035266;28;20044;-63
2023/05/13 06:58:43;;;;;;;6.20;5.32;;;13.20;82.70;;;;;;5029229;28;20079;-63
2023/05/13 07:01:09;;;;;;;7.38;5.75;;;13.20;82.70;;;;;;5031637;28;20527;-63
2023/05/13 07:03:35;;;;;;;6.93;5.50;;;13.20;82.60;;;;;;5032356;28;20443;-63
2023/05/13 07:06:00;;;;;;;7.75;5.60;;;13.20;82.60;;;;;;5033722;28;20026;-62
2023/05/13 07:08:26;;;;;;;8.32;5.97;;;13.20;82.60;;;;;;5034199;28;20039;-63
2023/05/13 07:10:51;;;;;;;7.60;5.97;;;13.20;82.60;;;;;;5033176;28;20132;-62
2023/05/13 07:13:20;;;;;;;6.55;5.90;;;13.20;82.60;;;;;;5033212;28;20060;-62
2023/05/13 07:15:46;;;;;;;7.65;6.03;;;13.20;82.40;;;;;;5036387;28;20033;-63
2023/05/13 07:18:12;;;;;;;6.20;5.57;;;13.20;82.40;;;;;;5035299;28;20040;-63
2023/05/13 07:20:37;;;;;;;7.75;6.60;;;13.20;82.40;;;;;;5032908;28;20481;-62
2023/05/13 07:23:03;;;;;;;6.53;5.80;;;13.20;82.20;;;;;;5031701;28;20078;-63
2023/05/13 07:25:28;;;;;;;7.00;6.30;;;13.20;82.20;;;;;;5033783;28;20029;-62
2023/05/13 07:27:54;;;;;;;6.63;5.82;;;13.20;82.20;;;;;;5035451;28;20045;-63
2023/05/13 07:30:20;;;;;;;7.65;6.43;;;13.20;82.30;;;;;;5030905;28;20107;-62
2023/05/13 07:32:45;;;;;;;7.47;6.20;;;13.20;82.40;;;;;;5030854;28;20037;-62
2023/05/13 07:35:11;;;;;;;7.07;5.97;;;13.20;82.30;;;;;;5029949;28;20025;-63
2023/05/13 07:37:36;;;;;;;7.43;5.63;;;13.20;82.40;;;;;;5030317;28;20515;-63
2023/05/13 07:40:04;;;;;;;11.27;5.60;;;13.20;82.40;;;;;;5034342;28;20114;-63
2023/05/13 07:42:30;;;;;;;6.50;5.55;;;13.20;82.40;;;;;;5032877;28;20573;-63
2023/05/13 07:44:55;;;;;;;6.95;5.78;;;13.20;82.30;;;;;;5028694;28;20045;-63
2023/05/13 07:47:21;;;;;;;7.47;5.78;;;13.20;82.20;;;;;;5029156;28;20029;-62
2023/05/13 07:49:47;;;;;;;7.75;5.63;;;13.20;82.00;;;;;;5031258;28;20299;-63
2023/05/13 07:52:13;;;;;;;7.22;5.57;;;13.20;81.90;;;;;;5030631;28;20563;-63
2023/05/13 07:54:38;;;;;;;6.72;5.70;;;13.20;82.00;;;;;;5037910;28;20032;-62
2023/05/13 07:57:04;;;;;;;6.40;5.72;;;13.20;82.00;;;;;;5037382;28;20298;-63
2023/05/13 07:59:30;;;;;;;8.20;6.05;;;13.20;82.10;;;;;;5040454;28;20555;-62
2023/05/13 08:01:56;;;;;;;6.63;5.57;;;13.30;82.40;;;;;;5038835;28;20075;-63
2023/05/13 08:04:21;;;;;;;6.32;5.65;;;13.30;82.20;;;;;;5042485;28;20501;-62
2023/05/13 08:06:47;;;;;;;6.43;5.78;;;13.20;82.10;;;;;;5040972;28;20120;-62
2023/05/13 08:09:13;;;;;;;7.40;5.82;;;13.30;82.20;;;;;;5041764;28;20120;-62
2023/05/13 08:11:38;;;;;;;7.40;6.05;;;13.30;82.20;;;;;;5041552;28;20037;-62
2023/05/13 08:14:04;;;;;;;7.28;6.30;;;13.30;82.20;;;;;;5033051;28;20116;-62
2023/05/13 08:16:30;;;;;;;7.63;6.40;;;13.30;82.10;;;;;;5033137;28;20065;-62
2023/05/13 08:18:56;;;;;;;6.55;5.68;;;13.30;83.00;;;;;;5034490;28;20045;-62
2023/05/13 08:21:22;;;;;;;7.25;5.97;;;13.40;82.40;;;;;;5037390;28;20116;-62
2023/05/13 08:23:50;;;;;;;6.65;5.65;;;13.40;82.40;;;;;;5037902;28;20040;-62
2023/05/13 08:26:16;;;;;;;7.10;6.35;;;13.40;82.20;;;;;;5037324;28;20424;-61
2023/05/13 08:28:42;;;;;;;6.57;5.88;;;13.40;82.10;;;;;;5033813;28;20040;-61
2023/05/13 08:31:09;;;;;;;7.93;6.25;;;13.40;82.10;;;;;;5037028;28;20151;-62
2023/05/13 08:33:35;;;;;;;9.77;6.47;;;13.40;82.00;;;;;;5033005;28;20323;-63
2023/05/13 08:36:01;;;;;;;7.53;6.43;;;13.40;82.00;;;;;;5038567;28;20115;-62
2023/05/13 08:38:26;;;;;;;7.93;6.60;;;13.50;82.80;;;;;;5036904;28;20547;-60
2023/05/13 08:40:52;;;;;;;7.57;6.60;;;13.40;81.90;;;;;;5037261;28;20034;-62
2023/05/13 08:43:18;;;;;;;7.70;6.60;;;13.40;81.90;;;;;;5036539;28;20528;-62
2023/05/13 08:45:46;;;;;;;8.30;6.65;;;13.40;81.90;;;;;;5037868;28;20045;-62
2023/05/13 08:48:15;;;;;;;6.95;5.70;;;13.40;82.00;;;;;;5038913;28;20034;-62
2023/05/13 08:50:41;;;;;;;6.55;5.90;;;13.40;81.80;;;;;;5038617;28;20427;-62
2023/05/13 08:53:08;;;;;;;6.53;5.80;;;13.40;81.90;;;;;;5039463;28;20044;-62
2023/05/13 08:55:34;;;;;;;7.93;6.05;;;13.40;82.70;;;;;;5039846;28;20040;-60
2023/05/13 08:58:00;;;;;;;7.45;5.80;;;13.40;82.00;;;;;;5038255;28;20475;-61
2023/05/13 09:00:25;;;;;;;8.38;6.03;;;13.40;82.10;;;;;;5039117;28;20497;-61
2023/05/13 09:02:51;;;;;;;6.93;5.60;;;13.30;82.00;;;;;;5038080;28;20168;-62
2023/05/13 09:05:17;;;;;;;7.90;5.95;;;13.40;81.90;;;;;;5037980;28;20124;-61
2023/05/13 09:07:43;;;;;;;8.43;6.03;;;13.40;81.90;;;;;;5038756;28;20067;-61
2023/05/13 09:10:09;;;;;;;7.82;5.90;;;13.40;81.90;;;;;;5041438;28;20401;-62
2023/05/13 09:12:51;;;;;;;6.88;5.88;;;13.40;81.90;;;;;;5038570;28;20025;-61
2023/05/13 09:15:22;;;;;;;7.70;6.22;;;13.40;81.90;;;;;;5037188;28;20059;-61
2023/05/13 09:17:55;;;;;;;6.47;5.85;;;13.40;81.90;;;;;;5037927;28;20041;-62
2023/05/13 09:20:24;;;;;;;7.38;6.38;;;13.50;81.90;;;;;;5038818;28;20044;-61
2023/05/13 09:22:57;;;;;;;6.78;6.07;;;13.50;81.90;;;;;;5037016;28;20036;-62
2023/05/13 09:25:23;;;;;;;6.70;6.00;;;13.50;81.80;;;;;;5038070;28;20041;-61
2023/05/13 09:27:51;;;;;;;7.45;6.60;;;13.50;82.50;;;;;;5037797;28;20407;-61
2023/05/13 09:30:19;;;;;;;9.05;7.13;;;13.60;81.70;;;;;;5037960;28;20441;-61
2023/05/13 09:33:05;;;;;;;9.63;7.00;;;13.50;81.70;;;;;;5037399;28;20026;-62
2023/05/13 09:35:31;;;;;;;10.25;6.93;;;13.50;81.80;;;;;;5038128;28;20041;-61
2023/05/13 09:37:57;;;;;;;8.52;7.63;;;13.50;81.80;;;;;;5038378;28;20025;-61
2023/05/13 09:40:23;;;;;;;8.10;7.28;;;13.50;81.90;;;;;;5039731;28;20120;-61
2023/05/13 09:42:49;;;;;;;9.10;7.13;;;13.50;82.00;;;;;;5037539;28;20112;-62
2023/05/13 09:45:16;;;;;;;7.78;6.43;;;13.40;82.90;;;;;;5038333;28;20396;-61
2023/05/13 09:47:42;;;;;;;7.80;7.10;;;13.40;82.20;;;;;;5037990;28;20448;-62
2023/05/13 09:50:10;;;;;;;8.52;6.85;;;13.50;82.20;;;;;;5037094;28;20409;-60
2023/05/13 09:52:37;;;;;;;12.00;7.60;;;13.50;82.20;;;;;;5036555;28;20048;-61
2023/05/13 09:55:04;;;;;;;8.88;6.97;;;13.50;82.10;;;;;;5037703;28;20084;-62
2023/05/13 09:57:32;;;;;;;8.40;6.82;;;13.50;82.10;;;;;;5036013;28;20040;-62
2023/05/13 10:00:04;;;;;;;8.02;7.10;;;13.50;82.20;;;;;;5037982;28;20065;-62
2023/05/13 10:02:30;;;;;;;10.48;7.10;;;13.50;82.20;;;;;;5036320;28;20049;-61
2023/05/13 10:04:57;;;;;;;11.98;7.85;;;13.50;82.20;;;;;;5037091;28;20403;-61
2023/05/13 10:07:26;;;;;;;9.23;8.18;;;13.60;82.20;;;;;;5038123;28;20126;-61
2023/05/13 10:09:57;;;;;;;8.93;8.00;;;13.50;81.90;;;;;;5039120;28;20563;-61
2023/05/13 10:12:26;;;;;;;9.73;7.85;;;13.50;81.90;;;;;;5037361;28;20711;-60
2023/05/13 10:14:53;;;;;;;10.10;8.23;;;13.50;82.20;;;;;;5037925;28;20045;-61
2023/05/13 10:17:21;;;;;;;9.55;7.93;;;13.40;82.30;;;;;;5037659;28;20501;-61
2023/05/13 10:19:51;;;;;;;8.10;7.40;;;13.50;82.50;;;;;;5036025;28;20040;-61
2023/05/13 10:22:26;;;;;;;9.07;7.70;;;13.40;82.70;;;;;;5036777;28;20119;-62
2023/05/13 10:24:55;;;;;;;8.85;7.95;;;13.40;82.70;;;;;;5037880;28;20080;-62
2023/05/13 10:27:21;;;;;;;9.43;8.38;;;13.50;82.70;;;;;;5037643;28;20404;-61
2023/05/13 10:29:48;;;;;;;7.75;7.00;;;13.50;82.60;;;;;;5036473;28;20033;-61
2023/05/13 10:32:14;;;;;;;8.30;7.03;;;13.50;82.60;;;;;;5037585;28;20045;-62
2023/05/13 10:34:42;;;;;;;8.40;6.78;;;13.60;82.90;;;;;;5036365;28;20334;-62
2023/05/13 10:37:23;;;;;;;8.50;7.40;;;13.60;82.80;;;;;;5037140;28;20026;-62
2023/05/13 10:40:27;;;;;;;9.50;8.00;;;13.70;82.70;;;;;;5037796;28;20032;-62
2023/05/13 10:43:10;;;;;;;11.15;8.77;;;13.70;82.20;;;;;;5018465;28;21035;-61
2023/05/13 10:45:35;;;;;;;10.27;8.45;;;13.80;82.10;;;;;;5016088;28;20644;-62
2023/05/13 10:48:09;;;;;;;12.40;9.45;;;13.80;81.70;;;;;;5017914;28;20029;-62
2023/05/13 10:50:37;;;;;;;9.63;7.93;;;13.80;81.90;;;;;;5015805;28;20437;-61
2023/05/13 10:53:09;;;;;;;8.80;7.95;;;13.80;81.80;;;;;;5017010;28;20034;-62
2023/05/13 10:55:42;;;;;;;9.70;8.20;;;13.80;81.80;;;;;;5016643;28;20088;-62
2023/05/13 10:58:11;;;;;;;8.25;7.30;;;13.70;81.70;;;;;;5014627;28;20660;-60
2023/05/13 11:00:38;;;;;;;7.97;7.18;;;13.70;81.70;;;;;;5017123;28;20033;-62
2023/05/13 11:03:14;;;;;;;7.72;6.95;;;13.80;81.90;;;;;;5018761;28;20034;-62
2023/05/13 11:05:44;;;;;;;9.02;7.78;;;13.80;82.00;;;;;;5017272;28;20464;-62
2023/05/13 11:08:10;;;;;;;9.27;7.40;;;13.70;81.90;;;;;;5018277;28;20689;-62
2023/05/13 11:10:36;;;;;;;8.32;7.53;;;13.70;81.90;;;;;;5018945;28;20124;-62
2023/05/13 11:13:14;;;;;;;8.25;7.35;;;13.80;81.90;;;;;;5017823;28;20462;-61
2023/05/13 11:15:49;;;;;;;8.23;7.40;;;13.80;81.90;;;;;;5017423;28;20116;-62
2023/05/13 11:18:14;;;;;;;9.27;7.88;;;13.70;81.90;;;;;;5016745;28;20030;-61
2023/05/13 11:20:45;;;;;;;8.07;7.28;;;13.70;81.80;;;;;;5016368;28;20460;-61
2023/05/13 11:23:16;;;;;;;11.52;8.27;;;13.70;81.80;;;;;;5017109;28;20114;-62
2023/05/13 11:25:44;;;;;;;9.43;7.43;;;13.60;81.80;;;;;;5016039;28;20180;-62
2023/05/13 11:28:19;;;;;;;9.23;7.85;;;13.60;82.00;;;;;;5018030;28;20041;-61
2023/05/13 11:30:54;;;;;;;9.93;8.10;;;13.60;82.40;;;;;;5015373;28;20033;-62
2023/05/13 11:33:20;;;;;;;8.40;7.57;;;13.60;82.90;;;;;;5017098;28;20096;-62
2023/05/13 11:35:56;;;;;;;14.50;7.63;;;13.60;82.60;;;;;;5016312;28;20121;-61
2023/05/13 11:38:23;;;;;;;8.18;7.38;;;13.60;82.60;;;;;;5017407;28;20034;-62
2023/05/13 11:40:50;;;;;;;8.18;7.38;;;13.60;82.40;;;;;;5015518;28;20030;-61
2023/05/13 11:43:20;;;;;;;8.30;7.50;;;13.70;82.40;;;;;;5016405;28;20402;-62
2023/05/13 11:45:46;;;;;;;8.35;7.50;;;13.70;82.40;;;;;;5017464;28;20037;-62
2023/05/13 11:48:20;;;;;;;8.75;7.50;;;13.70;82.40;;;;;;5017080;28;20037;-62
2023/05/13 11:50:48;;;;;;;8.93;7.78;;;13.80;82.50;;;;;;5015232;28;20176;-62
2023/05/13 11:53:19;;;;;;;7.93;7.10;;;13.70;82.20;;;;;;5017475;28;20041;-62
2023/05/13 11:55:45;;;;;;;7.68;6.88;;;13.80;82.40;;;;;;5015884;28;20456;-61
2023/05/13 11:58:13;;;;;;;8.27;7.13;;;13.80;82.50;;;;;;5016890;28;20034;-62
2023/05/13 12:00:38;;;;;;;7.93;7.22;;;13.80;82.40;;;;;;5014653;28;20064;-61
2023/05/13 12:03:10;;;;;;;8.38;7.57;;;13.90;82.40;;;;;;5016895;28;20037;-62
2023/05/13 12:05:36;;;;;;;8.52;7.72;;;13.90;82.10;;;;;;5016315;28;20044;-62
2023/05/13 12:08:01;;;;;;;8.27;7.47;;;13.90;82.00;;;;;;5017284;28;20034;-62
2023/05/13 12:10:27;;;;;;;8.18;7.40;;;13.90;82.00;;;;;;5017169;28;20041;-62
2023/05/13 12:12:53;;;;;;;7.72;7.00;;;13.90;82.00;;;;;;5017215;28;20025;-62
2023/05/13 12:15:20;;;;;;;8.77;7.13;;;14.00;82.00;;;;;;5017698;28;20485;-62
2023/05/13 12:17:47;;;;;;;8.10;7.40;;;13.90;81.80;;;;;;5017283;28;20041;-62
2023/05/13 12:20:23;;;;;;;7.93;7.13;;;14.00;81.90;;;;;;5017204;28;20030;-61
2023/05/13 12:22:49;;;;;;;8.63;7.80;;;14.00;81.90;;;;;;5017562;28;20042;-62
2023/05/13 12:25:36;;;;;;;8.40;7.60;;;14.00;81.80;;;;;;5016524;28;20409;-62
2023/05/13 12:28:17;;;;;;;8.75;7.82;;;14.00;81.50;;;;;;5015946;28;20032;-62
2023/05/13 12:30:49;;;;;;;8.93;8.07;;;14.00;81.70;;;;;;5015316;28;20453;-62
2023/05/13 12:33:42;;;;;;;8.73;7.80;;;14.00;81.90;;;;;;5014512;28;20049;-62
2023/05/13 12:36:34;;;;;;;9.85;8.57;;;14.00;81.90;;;;;;5013868;28;20041;-61
2023/05/13 12:39:01;;;;;;;10.30;8.57;;;14.10;81.90;;;;;;5034971;28;20059;-61
2023/05/13 12:41:33;;;;;;;7.82;7.05;;;14.10;82.00;;;;;;5030481;28;20029;-62
2023/05/13 12:44:06;;;;;;;8.27;7.47;;;14.20;82.20;;;;;;5020218;28;20077;-62
2023/05/13 12:46:33;;;;;;;8.63;7.55;;;14.20;82.30;;;;;;5020009;28;20042;-61